Skip Navigation LinksHome page > Tools > METAR decoder Skip Navigation Links

METAR decoder

Settings

METAR

Chicago O'Hare Intl, Chicago

For information only: do not use for flight planning or navigation.
Latest weather
Observation time Saturday, December 20, 2014 6:51 PM CST
Local time Saturday, December 20, 2014 7:10 PM CST
Flight conditions Visual Meteorological Conditions
Winds
Wind direction South (170°)
Wind speed 6 mph
Visibility 10 mi.
Sky condition
Ceiling 6,500 ft. overcast
Cloud layer scattered clouds 5,000 ft.
Cloud layer overcast 6,500 ft.
Temperature 31°F
Dewpoint 25°F
Altimeter 30.25 in.Hg
Derived measurements
Relative humidity 78%
Wind chill 25°F
Density altitude -1548 ft.
Sea-level pressure 30.27 in.Hg
Remarks
Automated weather observing station with precipitation discriminator.
METAR KORD 210051Z 17005KT 10SM SCT050 OVC065 M01/M04 A3025 RMK AO2 SLP252 T10061039

InnerDrive.Weather 4.0.5399.0 Release CLR 4.0.30319.34014
Copyright ©2014 Inner Drive Technology. All rights reserved. Portions Copyright ©1986-2014 David Braverman.

Find weather

Site navigation


Skip Navigation Links

Place info

Page info

PayPal - The safer, easier way to pay online!

Return home.

Copyright ©2014 Inner Drive Technology. Purveyors of fine, hand-crafted computer software. Page printed 2014-12-21T01:10:29 UTC.